CheckWX is a tool to help pilots better visualize weather data.  It is not intended as a substitute for an official pre-flight weather briefing.

02:26:50 UTC

KFLG METAR
Flagstaff Pulliam Airport
Flagstaff, Arizona, USA
Current

30 mins ago

KFLG 180157Z 25013G23KT 9SM FEW035 M06/M12 A2980 RMK AO2 PK WND 25028/0105 SNE27 SLP109 P0001 T10561122
Observed
Feb-18 @ 01:57 UTC
Wind
  • 250° at 13 KTS
  • Gusting to 23 KTS
Visibility
9 SM
Flight Rules
VFR
Cloud Levels
  • Few at 3,500' AGL
Temperature
-6°C / 21°F
Dewpoint
-12°C / 10°F
Humidity
63%
Altimeter
29.8" Hg
Pressure
1010.9 hPa
Current Rain
0.01"
Previous

51 mins ago

KFLG 180136Z 25010G18KT 10SM FEW019 SCT026 BKN035 M06/M11 A2979 RMK AO2 PK WND 25028/0105 SNE27 P0001 T10561106
Observed
Feb-18 @ 01:36 UTC
Wind
  • 250° at 10 KTS
  • Gusting to 18 KTS
Visibility
10 SM
Flight Rules
VFR
Cloud Levels
  • Few at 1,900' AGL
  • Scattered at 2,600' AGL
  • Broken at 3,500' AGL
Temperature
-6°C / 21°F
Dewpoint
-11°C / 12°F
Humidity
68%
Altimeter
29.79" Hg
Pressure
1008.82 hPa
Current Rain
0.01"
Previous

1 hour ago

KFLG 180125Z 24009KT 5SM -SN FEW019 BKN025 OVC033 M06/M09 A2979 RMK AO2 PK WND 25028/0105 P0001 T10561089
Observed
Feb-18 @ 01:25 UTC
Wind
  • 240° at 9 KTS
Visibility
5 SM
Flight Rules
MVFR
Conditions
Light Snow
Cloud Levels
  • Few at 1,900' AGL
  • Broken at 2,500' AGL
  • Overcast at 3,300' AGL
Temperature
-6°C / 21°F
Dewpoint
-9°C / 16°F
Humidity
80%
Altimeter
29.79" Hg
Pressure
1008.82 hPa
Current Rain
0.01"